sensor_id;sensor_type;location;lat;lon;timestamp;pressure;altitude;pressure_sealevel;temperature;humidity
42111;BME280;27766;52.174;5.456;2022-09-25T00:01:12;101526.59;;;8.61;nan
42111;BME280;27766;52.174;5.456;2022-09-25T00:03:40;101527.47;;;8.62;nan
42111;BME280;27766;52.174;5.456;2022-09-25T00:06:17;101524.78;;;8.59;nan
42111;BME280;27766;52.174;5.456;2022-09-25T00:08:44;101516.81;;;8.52;nan
42111;BME280;27766;52.174;5.456;2022-09-25T00:11:22;101528.13;;;8.56;nan
42111;BME280;27766;52.174;5.456;2022-09-25T00:13:51;101531.34;;;8.50;nan
42111;BME280;27766;52.174;5.456;2022-09-25T00:16:21;101538.81;;;8.44;nan
42111;BME280;27766;52.174;5.456;2022-09-25T00:18:49;101530.78;;;8.36;nan
42111;BME280;27766;52.174;5.456;2022-09-25T00:21:36;101541.09;;;8.36;nan
42111;BME280;27766;52.174;5.456;2022-09-25T00:24:06;101539.28;;;8.34;nan
42111;BME280;27766;52.174;5.456;2022-09-25T00:26:37;101541.00;;;8.33;nan
42111;BME280;27766;52.174;5.456;2022-09-25T00:29:06;101543.34;;;8.27;nan
42111;BME280;27766;52.174;5.456;2022-09-25T00:31:34;101543.50;;;8.32;nan
42111;BME280;27766;52.174;5.456;2022-09-25T00:34:03;101549.41;;;8.29;nan
42111;BME280;27766;52.174;5.456;2022-09-25T00:36:31;101544.97;;;8.25;nan
42111;BME280;27766;52.174;5.456;2022-09-25T00:38:59;101540.81;;;8.29;nan
42111;BME280;27766;52.174;5.456;2022-09-25T00:41:27;101546.94;;;8.31;nan
42111;BME280;27766;52.174;5.456;2022-09-25T00:43:59;101539.25;;;8.32;nan
42111;BME280;27766;52.174;5.456;2022-09-25T00:49:05;101539.25;;;8.32;nan
42111;BME280;27766;52.174;5.456;2022-09-25T00:51:46;101547.66;;;8.28;nan
42111;BME280;27766;52.174;5.456;2022-09-25T00:54:22;101543.28;;;8.26;nan
42111;BME280;27766;52.174;5.456;2022-09-25T00:56:51;101543.97;;;8.21;nan
42111;BME280;27766;52.174;5.456;2022-09-25T00:59:25;101535.72;;;8.30;nan
42111;BME280;27766;52.174;5.456;2022-09-25T01:01:55;101539.25;;;8.32;nan
42111;BME280;27766;52.174;5.456;2022-09-25T01:04:23;101536.59;;;8.31;nan
42111;BME280;27766;52.174;5.456;2022-09-25T01:06:50;101533.94;;;8.29;nan
42111;BME280;27766;52.174;5.456;2022-09-25T01:09:18;101538.25;;;8.29;nan
42111;BME280;27766;52.174;5.456;2022-09-25T01:11:45;101527.50;;;8.18;nan
42111;BME280;27766;52.174;5.456;2022-09-25T01:14:13;101536.00;;;8.15;nan
42111;BME280;27766;52.174;5.456;2022-09-25T01:19:20;101535.28;;;8.19;nan
42111;BME280;27766;52.174;5.456;2022-09-25T01:22:19;101530.78;;;8.14;nan
42111;BME280;27766;52.174;5.456;2022-09-25T01:27:49;101531.59;;;8.13;nan
42111;BME280;27766;52.174;5.456;2022-09-25T01:30:19;101530.69;;;8.11;nan
42111;BME280;27766;52.174;5.456;2022-09-25T01:32:49;101537.41;;;8.07;nan
42111;BME280;27766;52.174;5.456;2022-09-25T01:35:32;101529.53;;;8.04;nan
42111;BME280;27766;52.174;5.456;2022-09-25T01:38:24;101530.50;;;8.06;nan
42111;BME280;27766;52.174;5.456;2022-09-25T01:41:17;101532.16;;;8.05;nan
42111;BME280;27766;52.174;5.456;2022-09-25T01:43:56;101525.09;;;8.00;nan
42111;BME280;27766;52.174;5.456;2022-09-25T01:46:33;101519.66;;;7.93;nan
42111;BME280;27766;52.174;5.456;2022-09-25T01:49:07;101522.25;;;7.93;nan
42111;BME280;27766;52.174;5.456;2022-09-25T01:51:47;101524.59;;;7.87;nan
42111;BME280;27766;52.174;5.456;2022-09-25T01:54:21;101530.31;;;7.80;nan
42111;BME280;27766;52.174;5.456;2022-09-25T01:56:57;101519.00;;;7.76;nan
42111;BME280;27766;52.174;5.456;2022-09-25T01:59:53;101526.75;;;7.76;nan
42111;BME280;27766;52.174;5.456;2022-09-25T02:02:26;101526.63;;;7.73;nan
42111;BME280;27766;52.174;5.456;2022-09-25T02:05:03;101517.06;;;7.71;nan
42111;BME280;27766;52.174;5.456;2022-09-25T02:07:36;101517.13;;;7.72;nan
42111;BME280;27766;52.174;5.456;2022-09-25T02:10:11;101524.06;;;7.73;nan
42111;BME280;27766;52.174;5.456;2022-09-25T02:12:46;101525.72;;;7.73;nan
42111;BME280;27766;52.174;5.456;2022-09-25T02:15:16;101531.66;;;7.70;nan
42111;BME280;27766;52.174;5.456;2022-09-25T02:17:51;101517.81;;;7.68;nan
42111;BME280;27766;52.174;5.456;2022-09-25T02:20:40;101512.47;;;7.64;nan
42111;BME280;27766;52.174;5.456;2022-09-25T02:23:21;101531.47;;;7.66;nan
42111;BME280;27766;52.174;5.456;2022-09-25T02:28:28;101534.66;;;7.60;nan
42111;BME280;27766;52.174;5.456;2022-09-25T02:30:56;101533.91;;;7.63;nan
42111;BME280;27766;52.174;5.456;2022-09-25T02:33:25;101517.56;;;7.62;nan
42111;BME280;27766;52.174;5.456;2022-09-25T02:35:53;101532.41;;;7.68;nan
42111;BME280;27766;52.174;5.456;2022-09-25T02:38:21;101524.47;;;7.63;nan
42111;BME280;27766;52.174;5.456;2022-09-25T02:40:52;101540.31;;;7.72;nan
42111;BME280;27766;52.174;5.456;2022-09-25T02:48:48;101531.06;;;7.78;nan
42111;BME280;27766;52.174;5.456;2022-09-25T02:51:34;101515.66;;;7.79;nan
42111;BME280;27766;52.174;5.456;2022-09-25T02:54:11;101523.47;;;7.81;nan
42111;BME280;27766;52.174;5.456;2022-09-25T02:59:55;101512.31;;;7.82;nan
42111;BME280;27766;52.174;5.456;2022-09-25T03:02:26;101511.47;;;7.81;nan
42111;BME280;27766;52.174;5.456;2022-09-25T03:04:56;101516.56;;;7.80;nan
42111;BME280;27766;52.174;5.456;2022-09-25T03:07:25;101508.66;;;7.75;nan
42111;BME280;27766;52.174;5.456;2022-09-25T03:09:54;101515.63;;;7.78;nan
42111;BME280;27766;52.174;5.456;2022-09-25T03:12:24;101521.63;;;7.78;nan
42111;BME280;27766;52.174;5.456;2022-09-25T03:14:51;101519.06;;;7.78;nan
42111;BME280;27766;52.174;5.456;2022-09-25T03:17:19;101526.75;;;7.76;nan
42111;BME280;27766;52.174;5.456;2022-09-25T03:19:47;101520.63;;;7.74;nan
42111;BME280;27766;52.174;5.456;2022-09-25T03:22:14;101518.06;;;7.74;nan
42111;BME280;27766;52.174;5.456;2022-09-25T03:24:42;101528.38;;;7.74;nan
42111;BME280;27766;52.174;5.456;2022-09-25T03:27:09;101520.56;;;7.73;nan
42111;BME280;27766;52.174;5.456;2022-09-25T03:29:36;101524.06;;;7.73;nan
42111;BME280;27766;52.174;5.456;2022-09-25T03:32:03;101524.91;;;7.74;nan
42111;BME280;27766;52.174;5.456;2022-09-25T03:34:30;101520.56;;;7.73;nan
42111;BME280;27766;52.174;5.456;2022-09-25T03:36:58;101515.66;;;7.79;nan
42111;BME280;27766;52.174;5.456;2022-09-25T03:39:25;101513.09;;;7.79;nan
42111;BME280;27766;52.174;5.456;2022-09-25T03:41:52;101509.84;;;7.83;nan
42111;BME280;27766;52.174;5.456;2022-09-25T03:44:20;101514.28;;;7.87;nan
42111;BME280;27766;52.174;5.456;2022-09-25T03:46:47;101519.56;;;7.90;nan
42111;BME280;27766;52.174;5.456;2022-09-25T03:49:14;101511.13;;;7.95;nan
42111;BME280;27766;52.174;5.456;2022-09-25T03:51:41;101510.44;;;7.99;nan
42111;BME280;27766;52.174;5.456;2022-09-25T03:54:09;101511.50;;;8.04;nan
42111;BME280;27766;52.174;5.456;2022-09-25T03:56:36;101507.22;;;8.04;nan
42111;BME280;27766;52.174;5.456;2022-09-25T03:59:03;101506.34;;;8.04;nan
42111;BME280;27766;52.174;5.456;2022-09-25T04:01:30;101498.38;;;7.98;nan
42111;BME280;27766;52.174;5.456;2022-09-25T04:03:58;101506.28;;;8.02;nan
42111;BME280;27766;52.174;5.456;2022-09-25T04:06:27;101506.19;;;8.01;nan
42111;BME280;27766;52.174;5.456;2022-09-25T04:08:55;101510.53;;;8.02;nan
42111;BME280;27766;52.174;5.456;2022-09-25T04:11:23;101509.63;;;8.00;nan
42111;BME280;27766;52.174;5.456;2022-09-25T04:13:50;101503.53;;;7.98;nan
42111;BME280;27766;52.174;5.456;2022-09-25T04:16:18;101502.41;;;7.91;nan
42111;BME280;27766;52.174;5.456;2022-09-25T04:18:47;101515.47;;;7.96;nan
42111;BME280;27766;52.174;5.456;2022-09-25T04:21:16;101506.91;;;7.97;nan
42111;BME280;27766;52.174;5.456;2022-09-25T04:23:43;101500.13;;;7.99;nan
42111;BME280;27766;52.174;5.456;2022-09-25T04:26:31;101504.38;;;7.98;nan
42111;BME280;27766;52.174;5.456;2022-09-25T04:28:59;101506.19;;;8.01;nan
42111;BME280;27766;52.174;5.456;2022-09-25T04:31:30;101508.69;;;7.98;nan
42111;BME280;27766;52.174;5.456;2022-09-25T04:33:58;101501.63;;;7.93;nan
42111;BME280;27766;52.174;5.456;2022-09-25T04:36:25;101506.91;;;7.97;nan
42111;BME280;27766;52.174;5.456;2022-09-25T04:38:52;101506.78;;;7.93;nan
42111;BME280;27766;52.174;5.456;2022-09-25T04:41:20;101495.31;;;7.85;nan
42111;BME280;27766;52.174;5.456;2022-09-25T04:43:47;101503.28;;;7.91;nan
42111;BME280;27766;52.174;5.456;2022-09-25T04:46:15;101507.50;;;7.89;nan
42111;BME280;27766;52.174;5.456;2022-09-25T04:48:48;101500.63;;;7.90;nan
42111;BME280;27766;52.174;5.456;2022-09-25T04:51:16;101498.81;;;7.87;nan
42111;BME280;27766;52.174;5.456;2022-09-25T04:53:43;101496.81;;;7.80;nan
42111;BME280;27766;52.174;5.456;2022-09-25T04:56:10;101493.41;;;7.81;nan
42111;BME280;27766;52.174;5.456;2022-09-25T04:58:48;101491.56;;;7.77;nan
42111;BME280;27766;52.174;5.456;2022-09-25T05:01:18;101494.00;;;7.74;nan
42111;BME280;27766;52.174;5.456;2022-09-25T05:03:47;101496.44;;;7.71;nan
42111;BME280;27766;52.174;5.456;2022-09-25T05:06:16;101496.38;;;7.69;nan
42111;BME280;27766;52.174;5.456;2022-09-25T05:08:48;101497.09;;;7.65;nan
42111;BME280;27766;52.174;5.456;2022-09-25T05:11:16;101496.91;;;7.60;nan
42111;BME280;27766;52.174;5.456;2022-09-25T05:13:44;101504.63;;;7.60;nan
42111;BME280;27766;52.174;5.456;2022-09-25T05:16:13;101507.06;;;7.57;nan
42111;BME280;27766;52.174;5.456;2022-09-25T05:18:40;101499.28;;;7.56;nan
42111;BME280;27766;52.174;5.456;2022-09-25T05:21:07;101500.06;;;7.53;nan
42111;BME280;27766;52.174;5.456;2022-09-25T05:23:35;101500.84;;;7.52;nan
42111;BME280;27766;52.174;5.456;2022-09-25T05:26:02;101500.06;;;7.53;nan
42111;BME280;27766;52.174;5.456;2022-09-25T05:28:30;101503.38;;;7.51;nan
42111;BME280;27766;52.174;5.456;2022-09-25T05:31:01;101506.78;;;7.50;nan
42111;BME280;27766;52.174;5.456;2022-09-25T05:33:32;101503.25;;;7.48;nan
42111;BME280;27766;52.174;5.456;2022-09-25T05:36:04;101500.81;;;7.51;nan
42111;BME280;27766;52.174;5.456;2022-09-25T05:38:33;101501.69;;;7.51;nan
42111;BME280;27766;52.174;5.456;2022-09-25T05:41:04;101501.63;;;7.50;nan
42111;BME280;27766;52.174;5.456;2022-09-25T05:43:33;101511.13;;;7.51;nan
42111;BME280;27766;52.174;5.456;2022-09-25T05:46:01;101504.19;;;7.50;nan
42111;BME280;27766;52.174;5.456;2022-09-25T05:48:28;101501.63;;;7.50;nan
42111;BME280;27766;52.174;5.456;2022-09-25T05:50:56;101494.63;;;7.47;nan
42111;BME280;27766;52.174;5.456;2022-09-25T05:53:26;101498.16;;;7.49;nan
42111;BME280;27766;52.174;5.456;2022-09-25T05:55:56;101502.44;;;7.49;nan
42111;BME280;27766;52.174;5.456;2022-09-25T05:58:25;101508.53;;;7.51;nan
42111;BME280;27766;52.174;5.456;2022-09-25T06:00:53;101500.72;;;7.49;nan
42111;BME280;27766;52.174;5.456;2022-09-25T06:03:24;101497.13;;;7.45;nan
42111;BME280;27766;52.174;5.456;2022-09-25T06:05:56;101494.63;;;7.47;nan
42111;BME280;27766;52.174;5.456;2022-09-25T06:08:25;101497.19;;;7.47;nan
42111;BME280;27766;52.174;5.456;2022-09-25T06:10:53;101496.47;;;7.50;nan
42111;BME280;27766;52.174;5.456;2022-09-25T06:13:21;101491.19;;;7.47;nan
42111;BME280;27766;52.174;5.456;2022-09-25T06:15:50;101499.25;;;7.54;nan
42111;BME280;27766;52.174;5.456;2022-09-25T06:18:20;101489.78;;;7.55;nan
42111;BME280;27766;52.174;5.456;2022-09-25T06:20:48;101499.41;;;7.59;nan
42111;BME280;27766;52.174;5.456;2022-09-25T06:23:17;101502.97;;;7.63;nan
42111;BME280;27766;52.174;5.456;2022-09-25T06:25:44;101502.25;;;7.65;nan
42111;BME280;27766;52.174;5.456;2022-09-25T06:28:11;101503.31;;;7.70;nan
42111;BME280;27766;52.174;5.456;2022-09-25T06:30:39;101507.94;;;7.79;nan
42111;BME280;27766;52.174;5.456;2022-09-25T06:33:09;101509.13;;;7.87;nan
42111;BME280;27766;52.174;5.456;2022-09-25T06:35:44;101497.56;;;7.99;nan
42111;BME280;27766;52.174;5.456;2022-09-25T06:38:13;101509.47;;;8.18;nan
42111;BME280;27766;52.174;5.456;2022-09-25T06:40:41;101511.81;;;8.34;nan
42111;BME280;27766;52.174;5.456;2022-09-25T06:43:14;101516.56;;;8.46;nan
42111;BME280;27766;52.174;5.456;2022-09-25T06:45:42;101511.66;;;8.52;nan
42111;BME280;27766;52.174;5.456;2022-09-25T06:48:12;101517.16;;;8.62;nan
42111;BME280;27766;52.174;5.456;2022-09-25T06:53:10;101511.63;;;8.75;nan
42111;BME280;27766;52.174;5.456;2022-09-25T06:55:38;101506.66;;;8.81;nan
42111;BME280;27766;52.174;5.456;2022-09-25T06:58:07;101512.97;;;8.90;nan
42111;BME280;27766;52.174;5.456;2022-09-25T07:00:36;101514.97;;;8.97;nan
42111;BME280;27766;52.174;5.456;2022-09-25T07:03:03;101519.47;;;9.02;nan
42111;BME280;27766;52.174;5.456;2022-09-25T07:05:48;101506.72;;;9.07;nan
42111;BME280;27766;52.174;5.456;2022-09-25T07:08:17;101519.22;;;9.21;nan
42111;BME280;27766;52.174;5.456;2022-09-25T07:10:54;101517.78;;;9.29;nan
42111;BME280;27766;52.174;5.456;2022-09-25T07:13:27;101519.78;;;9.38;nan
42111;BME280;27766;52.174;5.456;2022-09-25T07:15:59;101523.69;;;9.50;nan
42111;BME280;27766;52.174;5.456;2022-09-25T07:18:28;101510.13;;;9.58;nan
42111;BME280;27766;52.174;5.456;2022-09-25T07:20:59;101516.56;;;9.71;nan
42111;BME280;27766;52.174;5.456;2022-09-25T07:23:28;101517.03;;;9.85;nan
42111;BME280;27766;52.174;5.456;2022-09-25T07:26:04;101521.78;;;10.00;nan
42111;BME280;27766;52.174;5.456;2022-09-25T07:28:32;101516.16;;;10.13;nan
42111;BME280;27766;52.174;5.456;2022-09-25T07:31:16;101519.19;;;10.27;nan
42111;BME280;27766;52.174;5.456;2022-09-25T07:33:45;101521.97;;;10.35;nan
42111;BME280;27766;52.174;5.456;2022-09-25T07:36:14;101515.34;;;10.43;nan
42111;BME280;27766;52.174;5.456;2022-09-25T07:38:43;101521.88;;;10.59;nan
42111;BME280;27766;52.174;5.456;2022-09-25T07:41:12;101512.69;;;10.70;nan
42111;BME280;27766;52.174;5.456;2022-09-25T07:43:39;101524.13;;;10.79;nan
42111;BME280;27766;52.174;5.456;2022-09-25T07:46:10;101506.16;;;10.83;nan
42111;BME280;27766;52.174;5.456;2022-09-25T07:48:38;101518.69;;;11.00;nan
42111;BME280;27766;52.174;5.456;2022-09-25T07:51:10;101509.53;;;11.13;nan
42111;BME280;27766;52.174;5.456;2022-09-25T07:53:38;101505.50;;;11.24;nan
42111;BME280;27766;52.174;5.456;2022-09-25T07:56:06;101511.72;;;11.31;nan
42111;BME280;27766;52.174;5.456;2022-09-25T07:58:33;101507.63;;;11.40;nan
42111;BME280;27766;52.174;5.456;2022-09-25T08:01:03;101509.06;;;11.63;nan
42111;BME280;27766;52.174;5.456;2022-09-25T08:03:31;101501.44;;;11.70;nan
42111;BME280;27766;52.174;5.456;2022-09-25T08:06:01;101510.44;;;11.85;nan
42111;BME280;27766;52.174;5.456;2022-09-25T08:08:29;101515.00;;;11.95;nan
42111;BME280;27766;52.174;5.456;2022-09-25T08:11:00;101513.41;;;11.99;nan
42111;BME280;27766;52.174;5.456;2022-09-25T08:13:30;101511.81;;;12.06;nan
42111;BME280;27766;52.174;5.456;2022-09-25T08:16:02;101517.13;;;12.10;nan
42111;BME280;27766;52.174;5.456;2022-09-25T08:18:30;101511.97;;;12.12;nan
42111;BME280;27766;52.174;5.456;2022-09-25T08:21:03;101519.66;;;12.09;nan
42111;BME280;27766;52.174;5.456;2022-09-25T08:23:31;101521.41;;;12.08;nan
42111;BME280;27766;52.174;5.456;2022-09-25T08:25:58;101521.50;;;12.13;nan
42111;BME280;27766;52.174;5.456;2022-09-25T08:28:26;101520.78;;;12.20;nan
42111;BME280;27766;52.174;5.456;2022-09-25T08:30:57;101518.31;;;12.26;nan
42111;BME280;27766;52.174;5.456;2022-09-25T08:33:29;101504.38;;;12.21;nan
42111;BME280;27766;52.174;5.456;2022-09-25T08:35:58;101514.16;;;12.33;nan
42111;BME280;27766;52.174;5.456;2022-09-25T08:38:26;101520.22;;;12.33;nan
42111;BME280;27766;52.174;5.456;2022-09-25T08:41:00;101516.88;;;12.39;nan
42111;BME280;27766;52.174;5.456;2022-09-25T08:43:31;101516.06;;;12.42;nan
42111;BME280;27766;52.174;5.456;2022-09-25T08:46:03;101518.75;;;12.46;nan
42111;BME280;27766;52.174;5.456;2022-09-25T08:48:54;101510.28;;;12.55;nan
42111;BME280;27766;52.174;5.456;2022-09-25T08:51:29;101514.97;;;12.73;nan
42111;BME280;27766;52.174;5.456;2022-09-25T08:53:58;101523.88;;;12.86;nan
42111;BME280;27766;52.174;5.456;2022-09-25T08:56:27;101515.34;;;12.93;nan
42111;BME280;27766;52.174;5.456;2022-09-25T08:59:08;101514.78;;;13.08;nan
42111;BME280;27766;52.174;5.456;2022-09-25T09:01:46;101495.69;;;13.06;nan
42111;BME280;27766;52.174;5.456;2022-09-25T09:04:36;101503.63;;;13.14;nan
42111;BME280;27766;52.174;5.456;2022-09-25T09:07:08;101511.44;;;13.16;nan
42111;BME280;27766;52.174;5.456;2022-09-25T09:10:15;101523.34;;;13.04;nan
42111;BME280;27766;52.174;5.456;2022-09-25T09:12:51;101527.50;;;12.94;nan
42111;BME280;27766;52.174;5.456;2022-09-25T09:15:37;101539.66;;;12.95;nan
42111;BME280;27766;52.174;5.456;2022-09-25T09:18:23;101535.94;;;12.82;nan
42111;BME280;27766;52.174;5.456;2022-09-25T09:20:56;101533.94;;;12.69;nan
42111;BME280;27766;52.174;5.456;2022-09-25T09:23:36;101532.81;;;12.56;nan
42111;BME280;27766;52.174;5.456;2022-09-25T09:36:10;101531.56;;;11.99;nan
42111;BME280;27766;52.174;5.456;2022-09-25T09:46:27;101523.38;;;11.83;nan
42111;BME280;27766;52.174;5.456;2022-09-25T09:49:35;101517.34;;;11.84;nan
42111;BME280;27766;52.174;5.456;2022-09-25T09:52:18;101514.72;;;11.83;nan
42111;BME280;27766;52.174;5.456;2022-09-25T09:57:26;101502.81;;;11.91;nan
42111;BME280;27766;52.174;5.456;2022-09-25T10:00:00;101506.47;;;11.99;nan
42111;BME280;27766;52.174;5.456;2022-09-25T10:02:43;101504.44;;;12.24;nan
42111;BME280;27766;52.174;5.456;2022-09-25T10:05:33;101509.41;;;12.55;nan
42111;BME280;27766;52.174;5.456;2022-09-25T10:08:02;101500.50;;;12.86;nan
42111;BME280;27766;52.174;5.456;2022-09-25T10:10:40;101497.56;;;13.15;nan
42111;BME280;27766;52.174;5.456;2022-09-25T10:13:30;101493.75;;;13.43;nan
42111;BME280;27766;52.174;5.456;2022-09-25T10:16:02;101490.53;;;13.60;nan
42111;BME280;27766;52.174;5.456;2022-09-25T10:18:35;101490.88;;;13.82;nan
42111;BME280;27766;52.174;5.456;2022-09-25T10:21:11;101498.69;;;13.83;nan
42111;BME280;27766;52.174;5.456;2022-09-25T10:28:50;101497.56;;;13.66;nan
42111;BME280;27766;52.174;5.456;2022-09-25T10:31:18;101499.19;;;13.59;nan
42111;BME280;27766;52.174;5.456;2022-09-25T10:33:58;101495.50;;;13.46;nan
42111;BME280;27766;52.174;5.456;2022-09-25T10:38:58;101496.66;;;13.13;nan
42111;BME280;27766;52.174;5.456;2022-09-25T10:41:45;101496.59;;;13.10;nan
42111;BME280;27766;52.174;5.456;2022-09-25T10:44:28;101482.84;;;13.14;nan
42111;BME280;27766;52.174;5.456;2022-09-25T10:55:24;101485.34;;;13.61;nan
42111;BME280;27766;52.174;5.456;2022-09-25T10:58:21;101484.53;;;13.64;nan
42111;BME280;27766;52.174;5.456;2022-09-25T11:03:25;101471.09;;;13.93;nan
42111;BME280;27766;52.174;5.456;2022-09-25T11:06:04;101470.44;;;14.08;nan
42111;BME280;27766;52.174;5.456;2022-09-25T11:08:36;101482.03;;;14.33;nan
42111;BME280;27766;52.174;5.456;2022-09-25T11:11:05;101460.47;;;14.45;nan
42111;BME280;27766;52.174;5.456;2022-09-25T11:13:52;101469.31;;;14.56;nan
42111;BME280;27766;52.174;5.456;2022-09-25T11:16:46;101473.53;;;14.47;nan
42111;BME280;27766;52.174;5.456;2022-09-25T11:22:08;101473.28;;;14.25;nan
42111;BME280;27766;52.174;5.456;2022-09-25T11:25:02;101473.22;;;14.22;nan
42111;BME280;27766;52.174;5.456;2022-09-25T11:27:39;101472.41;;;14.26;nan
42111;BME280;27766;52.174;5.456;2022-09-25T11:30:12;101469.06;;;14.38;nan
42111;BME280;27766;52.174;5.456;2022-09-25T11:32:53;101463.97;;;14.47;nan
42111;BME280;27766;52.174;5.456;2022-09-25T11:40:51;101455.97;;;14.29;nan
42111;BME280;27766;52.174;5.456;2022-09-25T11:44:33;101441.13;;;14.23;nan
42111;BME280;27766;52.174;5.456;2022-09-25T11:46:44;101447.13;;;14.19;nan
42111;BME280;27766;52.174;5.456;2022-09-25T11:49:28;101436.81;;;14.25;nan
42111;BME280;27766;52.174;5.456;2022-09-25T11:52:19;101450.03;;;14.42;nan
42111;BME280;27766;52.174;5.456;2022-09-25T11:54:53;101445.69;;;14.43;nan
42111;BME280;27766;52.174;5.456;2022-09-25T12:05:53;101428.72;;;14.77;nan
42111;BME280;27766;52.174;5.456;2022-09-25T12:08:27;101433.16;;;14.84;nan
42111;BME280;27766;52.174;5.456;2022-09-25T12:11:52;101428.03;;;14.94;nan
42111;BME280;27766;52.174;5.456;2022-09-25T12:16:51;101432.63;;;15.23;nan
42111;BME280;27766;52.174;5.456;2022-09-25T12:34:38;101436.69;;;14.16;nan
42111;BME280;27766;52.174;5.456;2022-09-25T12:40:04;101433.63;;;13.82;nan
42111;BME280;27766;52.174;5.456;2022-09-25T12:42:59;101432.66;;;13.73;nan
42111;BME280;27766;52.174;5.456;2022-09-25T12:45:38;101423.91;;;13.68;nan
42111;BME280;27766;52.174;5.456;2022-09-25T12:48:29;101428.19;;;13.65;nan
42111;BME280;27766;52.174;5.456;2022-09-25T12:51:01;101418.78;;;13.71;nan
42111;BME280;27766;52.174;5.456;2022-09-25T12:53:42;101408.44;;;13.77;nan
42111;BME280;27766;52.174;5.456;2022-09-25T13:01:59;101403.13;;;13.70;nan
42111;BME280;27766;52.174;5.456;2022-09-25T13:04:51;101406.78;;;13.83;nan
42111;BME280;27766;52.174;5.456;2022-09-25T13:12:44;101406.91;;;13.92;nan
42111;BME280;27766;52.174;5.456;2022-09-25T13:15:19;101404.31;;;13.93;nan
42111;BME280;27766;52.174;5.456;2022-09-25T13:17:51;101404.22;;;13.87;nan
42111;BME280;27766;52.174;5.456;2022-09-25T13:22:56;101393.28;;;14.13;nan
42111;BME280;27766;52.174;5.456;2022-09-25T13:25:25;101391.66;;;14.23;nan
42111;BME280;27766;52.174;5.456;2022-09-25T13:27:53;101380.47;;;14.29;nan
42111;BME280;27766;52.174;5.456;2022-09-25T13:30:26;101389.34;;;14.49;nan
42111;BME280;27766;52.174;5.456;2022-09-25T13:32:57;101385.91;;;14.50;nan
42111;BME280;27766;52.174;5.456;2022-09-25T13:35:25;101378.72;;;14.31;nan
42111;BME280;27766;52.174;5.456;2022-09-25T13:37:55;101377.81;;;14.24;nan
42111;BME280;27766;52.174;5.456;2022-09-25T13:40:38;101376.09;;;14.29;nan
42111;BME280;27766;52.174;5.456;2022-09-25T13:43:23;101368.25;;;14.26;nan
42111;BME280;27766;52.174;5.456;2022-09-25T13:48:46;101376.94;;;14.27;nan
42111;BME280;27766;52.174;5.456;2022-09-25T13:54:03;101376.38;;;14.57;nan
42111;BME280;27766;52.174;5.456;2022-09-25T14:01:43;101375.47;;;15.60;nan
42111;BME280;27766;52.174;5.456;2022-09-25T14:04:19;101370.25;;;15.54;nan
42111;BME280;27766;52.174;5.456;2022-09-25T14:06:50;101358.13;;;15.59;nan
42111;BME280;27766;52.174;5.456;2022-09-25T14:09:24;101363.50;;;15.87;nan
42111;BME280;27766;52.174;5.456;2022-09-25T14:12:08;101362.63;;;15.88;nan
42111;BME280;27766;52.174;5.456;2022-09-25T14:14:43;101363.47;;;15.83;nan
42111;BME280;27766;52.174;5.456;2022-09-25T14:17:19;101353.09;;;16.04;nan
42111;BME280;27766;52.174;5.456;2022-09-25T14:19:52;101351.41;;;16.09;nan
42111;BME280;27766;52.174;5.456;2022-09-25T14:23:12;101349.41;;;15.60;nan
42111;BME280;27766;52.174;5.456;2022-09-25T14:27:50;101347.00;;;14.67;nan
42111;BME280;27766;52.174;5.456;2022-09-25T14:30:19;101338.97;;;14.49;nan
42111;BME280;27766;52.174;5.456;2022-09-25T14:33:10;101342.38;;;14.38;nan
42111;BME280;27766;52.174;5.456;2022-09-25T14:35:47;101337.28;;;14.52;nan
42111;BME280;27766;52.174;5.456;2022-09-25T14:38:27;101336.47;;;14.55;nan
42111;BME280;27766;52.174;5.456;2022-09-25T14:47:11;101330.56;;;14.75;nan
42111;BME280;27766;52.174;5.456;2022-09-25T14:49:42;101333.25;;;14.84;nan
42111;BME280;27766;52.174;5.456;2022-09-25T14:52:14;101330.81;;;15.07;nan
42111;BME280;27766;52.174;5.456;2022-09-25T14:54:44;101321.50;;;15.46;nan
42111;BME280;27766;52.174;5.456;2022-09-25T14:57:17;101314.81;;;16.01;nan
42111;BME280;27766;52.174;5.456;2022-09-25T14:59:55;101313.97;;;16.08;nan
42111;BME280;27766;52.174;5.456;2022-09-25T15:02:41;101313.94;;;15.96;nan
42111;BME280;27766;52.174;5.456;2022-09-25T15:07:56;101305.97;;;15.71;nan
42111;BME280;27766;52.174;5.456;2022-09-25T15:10:30;101314.53;;;15.45;nan
42111;BME280;27766;52.174;5.456;2022-09-25T15:13:24;101309.16;;;15.19;nan
42111;BME280;27766;52.174;5.456;2022-09-25T15:15:55;101312.53;;;15.02;nan
42111;BME280;27766;52.174;5.456;2022-09-25T15:18:44;101308.09;;;14.87;nan
42111;BME280;27766;52.174;5.456;2022-09-25T15:21:26;101309.03;;;14.96;nan
42111;BME280;27766;52.174;5.456;2022-09-25T15:24:04;101295.97;;;14.90;nan
42111;BME280;27766;52.174;5.456;2022-09-25T15:26:32;101298.50;;;14.80;nan
42111;BME280;27766;52.174;5.456;2022-09-25T15:29:13;101301.91;;;14.73;nan
42111;BME280;27766;52.174;5.456;2022-09-25T15:31:45;101297.44;;;14.63;nan
42111;BME280;27766;52.174;5.456;2022-09-25T15:34:25;101292.19;;;14.58;nan
42111;BME280;27766;52.174;5.456;2022-09-25T15:36:53;101287.00;;;14.63;nan
42111;BME280;27766;52.174;5.456;2022-09-25T15:39:24;101299.31;;;14.75;nan
42111;BME280;27766;52.174;5.456;2022-09-25T15:41:52;101292.34;;;14.72;nan
42111;BME280;27766;52.174;5.456;2022-09-25T15:44:22;101293.25;;;14.76;nan
42111;BME280;27766;52.174;5.456;2022-09-25T15:47:00;101293.97;;;14.64;nan
42111;BME280;27766;52.174;5.456;2022-09-25T15:49:32;101297.28;;;14.47;nan
42111;BME280;27766;52.174;5.456;2022-09-25T15:52:03;101292.03;;;14.39;nan
42111;BME280;27766;52.174;5.456;2022-09-25T15:54:33;101290.25;;;14.37;nan
42111;BME280;27766;52.174;5.456;2022-09-25T15:57:07;101294.56;;;14.33;nan
42111;BME280;27766;52.174;5.456;2022-09-25T15:59:45;101291.84;;;14.19;nan
42111;BME280;27766;52.174;5.456;2022-09-25T16:02:35;101293.50;;;14.14;nan
42111;BME280;27766;52.174;5.456;2022-09-25T16:05:33;101289.09;;;14.07;nan